sensor_id;sensor_type;location;lat;lon;timestamp;temperature;humidity
31975;DHT22;18500;43.618;1.474;2023-01-29T08:47:48;3.00;1.00
31975;DHT22;18500;43.618;1.474;2023-01-29T08:50:15;3.00;1.00
31975;DHT22;18500;43.618;1.474;2023-01-29T08:52:42;3.10;1.00
31975;DHT22;18500;43.618;1.474;2023-01-29T08:55:08;3.20;1.00
31975;DHT22;18500;43.618;1.474;2023-01-29T08:57:34;3.30;1.00
31975;DHT22;18500;43.618;1.474;2023-01-29T09:00:00;3.40;1.00
31975;DHT22;18500;43.618;1.474;2023-01-29T09:02:25;3.40;1.00
31975;DHT22;18500;43.618;1.474;2023-01-29T09:04:51;3.40;1.00
31975;DHT22;18500;43.618;1.474;2023-01-29T09:07:17;3.50;1.00
31975;DHT22;18500;43.618;1.474;2023-01-29T09:09:44;3.50;1.00
31975;DHT22;18500;43.618;1.474;2023-01-29T09:12:10;3.50;1.00
31975;DHT22;18500;43.618;1.474;2023-01-29T09:14:35;3.50;1.00
31975;DHT22;18500;43.618;1.474;2023-01-29T09:17:01;3.60;1.00
31975;DHT22;18500;43.618;1.474;2023-01-29T09:19:27;3.60;1.00
31975;DHT22;18500;43.618;1.474;2023-01-29T09:21:52;3.80;1.00
31975;DHT22;18500;43.618;1.474;2023-01-29T09:24:18;3.70;1.00
31975;DHT22;18500;43.618;1.474;2023-01-29T09:26:43;3.80;1.00
31975;DHT22;18500;43.618;1.474;2023-01-29T09:29:09;3.80;1.00
31975;DHT22;18500;43.618;1.474;2023-01-29T09:31:35;3.80;1.00
31975;DHT22;18500;43.618;1.474;2023-01-29T09:34:01;3.90;1.00
31975;DHT22;18500;43.618;1.474;2023-01-29T09:36:26;3.90;1.00
31975;DHT22;18500;43.618;1.474;2023-01-29T09:38:52;3.80;1.00
31975;DHT22;18500;43.618;1.474;2023-01-29T09:41:53;3.90;1.00
31975;DHT22;18500;43.618;1.474;2023-01-29T09:47:23;4.00;1.00
31975;DHT22;18500;43.618;1.474;2023-01-29T09:52:26;4.10;1.00
31975;DHT22;18500;43.618;1.474;2023-01-29T09:55:15;4.20;1.00
31975;DHT22;18500;43.618;1.474;2023-01-29T10:00:17;4.30;1.00
31975;DHT22;18500;43.618;1.474;2023-01-29T10:05:51;4.30;1.00
31975;DHT22;18500;43.618;1.474;2023-01-29T10:14:29;4.60;1.00
31975;DHT22;18500;43.618;1.474;2023-01-29T10:22:34;4.70;1.00
31975;DHT22;18500;43.618;1.474;2023-01-29T10:25:10;4.70;1.00
31975;DHT22;18500;43.618;1.474;2023-01-29T10:27:40;4.60;1.00
31975;DHT22;18500;43.618;1.474;2023-01-29T10:30:16;4.60;1.00
31975;DHT22;18500;43.618;1.474;2023-01-29T10:32:46;4.70;1.00
31975;DHT22;18500;43.618;1.474;2023-01-29T10:35:33;4.80;1.00
31975;DHT22;18500;43.618;1.474;2023-01-29T10:38:20;4.90;1.00
31975;DHT22;18500;43.618;1.474;2023-01-29T10:46:14;5.40;1.00
31975;DHT22;18500;43.618;1.474;2023-01-29T10:54:40;5.50;1.00
31975;DHT22;18500;43.618;1.474;2023-01-29T11:00:23;6.00;1.00
31975;DHT22;18500;43.618;1.474;2023-01-29T11:02:50;6.20;1.00
31975;DHT22;18500;43.618;1.474;2023-01-29T11:05:29;6.20;1.00
31975;DHT22;18500;43.618;1.474;2023-01-29T11:08:21;5.80;1.00
31975;DHT22;18500;43.618;1.474;2023-01-29T11:10:57;5.60;1.00
31975;DHT22;18500;43.618;1.474;2023-01-29T11:13:30;5.70;1.00
31975;DHT22;18500;43.618;1.474;2023-01-29T11:15:57;5.70;1.00
31975;DHT22;18500;43.618;1.474;2023-01-29T11:18:22;5.90;1.00
31975;DHT22;18500;43.618;1.474;2023-01-29T11:21:00;6.00;1.00
31975;DHT22;18500;43.618;1.474;2023-01-29T11:23:31;5.80;1.00
31975;DHT22;18500;43.618;1.474;2023-01-29T11:25:58;5.90;1.00
31975;DHT22;18500;43.618;1.474;2023-01-29T11:28:37;6.00;1.00
31975;DHT22;18500;43.618;1.474;2023-01-29T11:31:13;6.30;1.00
31975;DHT22;18500;43.618;1.474;2023-01-29T11:33:39;6.10;1.00
31975;DHT22;18500;43.618;1.474;2023-01-29T11:36:40;5.80;1.00
31975;DHT22;18500;43.618;1.474;2023-01-29T11:39:10;5.80;1.00
31975;DHT22;18500;43.618;1.474;2023-01-29T11:41:49;5.90;1.00
31975;DHT22;18500;43.618;1.474;2023-01-29T11:44:40;5.60;1.00
31975;DHT22;18500;43.618;1.474;2023-01-29T11:50:01;5.40;1.00
31975;DHT22;18500;43.618;1.474;2023-01-29T11:52:39;6.10;1.00
31975;DHT22;18500;43.618;1.474;2023-01-29T11:57:41;6.10;1.00
31975;DHT22;18500;43.618;1.474;2023-01-29T12:00:29;6.10;1.00
31975;DHT22;18500;43.618;1.474;2023-01-29T12:08:40;5.90;1.00
31975;DHT22;18500;43.618;1.474;2023-01-29T12:13:36;5.90;1.00
31975;DHT22;18500;43.618;1.474;2023-01-29T12:16:36;5.80;1.00
31975;DHT22;18500;43.618;1.474;2023-01-29T12:19:15;5.80;1.00
31975;DHT22;18500;43.618;1.474;2023-01-29T12:21:54;6.00;1.00
31975;DHT22;18500;43.618;1.474;2023-01-29T12:27:24;6.00;1.00
31975;DHT22;18500;43.618;1.474;2023-01-29T12:29:51;6.00;1.00
31975;DHT22;18500;43.618;1.474;2023-01-29T12:35:05;6.10;1.00
31975;DHT22;18500;43.618;1.474;2023-01-29T12:37:39;6.70;1.00
31975;DHT22;18500;43.618;1.474;2023-01-29T12:40:16;7.20;1.00
31975;DHT22;18500;43.618;1.474;2023-01-29T12:42:49;7.40;1.00
31975;DHT22;18500;43.618;1.474;2023-01-29T12:45:21;6.90;1.00
31975;DHT22;18500;43.618;1.474;2023-01-29T12:47:51;6.40;1.00
31975;DHT22;18500;43.618;1.474;2023-01-29T12:50:32;6.30;1.00
31975;DHT22;18500;43.618;1.474;2023-01-29T12:55:46;6.40;1.00
31975;DHT22;18500;43.618;1.474;2023-01-29T12:58:37;6.10;1.00
31975;DHT22;18500;43.618;1.474;2023-01-29T13:01:13;6.00;1.00
31975;DHT22;18500;43.618;1.474;2023-01-29T13:03:48;6.30;1.00
31975;DHT22;18500;43.618;1.474;2023-01-29T13:06:19;6.40;1.00
31975;DHT22;18500;43.618;1.474;2023-01-29T13:08:51;6.50;1.00
31975;DHT22;18500;43.618;1.474;2023-01-29T13:16:44;6.20;1.00
31975;DHT22;18500;43.618;1.474;2023-01-29T13:21:50;6.20;1.00
31975;DHT22;18500;43.618;1.474;2023-01-29T13:24:19;6.30;1.00
31975;DHT22;18500;43.618;1.474;2023-01-29T13:26:47;6.30;1.00
31975;DHT22;18500;43.618;1.474;2023-01-29T13:31:46;6.20;1.00
31975;DHT22;18500;43.618;1.474;2023-01-29T13:34:23;6.30;1.00
31975;DHT22;18500;43.618;1.474;2023-01-29T13:36:56;6.30;1.00
31975;DHT22;18500;43.618;1.474;2023-01-29T13:39:28;5.90;1.00
31975;DHT22;18500;43.618;1.474;2023-01-29T13:41:57;6.00;1.00
31975;DHT22;18500;43.618;1.474;2023-01-29T13:44:31;6.00;1.00
31975;DHT22;18500;43.618;1.474;2023-01-29T13:47:02;5.90;1.00
31975;DHT22;18500;43.618;1.474;2023-01-29T13:50:08;6.00;1.00
31975;DHT22;18500;43.618;1.474;2023-01-29T13:55:35;5.80;1.00
31975;DHT22;18500;43.618;1.474;2023-01-29T14:08:35;6.00;1.00
31975;DHT22;18500;43.618;1.474;2023-01-29T14:13:48;6.10;1.00
31975;DHT22;18500;43.618;1.474;2023-01-29T14:18:56;6.10;1.00
31975;DHT22;18500;43.618;1.474;2023-01-29T14:21:34;5.90;1.00
31975;DHT22;18500;43.618;1.474;2023-01-29T14:24:18;5.80;1.00
31975;DHT22;18500;43.618;1.474;2023-01-29T14:26:47;5.90;1.00
31975;DHT22;18500;43.618;1.474;2023-01-29T14:29:26;5.90;1.00
31975;DHT22;18500;43.618;1.474;2023-01-29T14:37:01;6.00;1.00
31975;DHT22;18500;43.618;1.474;2023-01-29T14:39:36;5.80;1.00
31975;DHT22;18500;43.618;1.474;2023-01-29T14:49:59;5.80;1.00
31975;DHT22;18500;43.618;1.474;2023-01-29T14:52:41;5.70;1.00
31975;DHT22;18500;43.618;1.474;2023-01-29T14:55:24;5.60;1.00
31975;DHT22;18500;43.618;1.474;2023-01-29T14:57:52;5.70;1.00
31975;DHT22;18500;43.618;1.474;2023-01-29T15:00:28;5.70;1.00
31975;DHT22;18500;43.618;1.474;2023-01-29T15:02:55;5.60;1.00
31975;DHT22;18500;43.618;1.474;2023-01-29T15:05:26;5.60;1.00
31975;DHT22;18500;43.618;1.474;2023-01-29T15:13:18;5.80;1.00
31975;DHT22;18500;43.618;1.474;2023-01-29T15:15:55;5.80;1.00
31975;DHT22;18500;43.618;1.474;2023-01-29T15:18:32;5.80;1.00
31975;DHT22;18500;43.618;1.474;2023-01-29T15:21:03;5.70;1.00
31975;DHT22;18500;43.618;1.474;2023-01-29T15:23:33;5.60;1.00
31975;DHT22;18500;43.618;1.474;2023-01-29T15:26:01;5.50;1.00
31975;DHT22;18500;43.618;1.474;2023-01-29T15:28:28;5.50;1.00
31975;DHT22;18500;43.618;1.474;2023-01-29T15:31:00;5.50;1.00
31975;DHT22;18500;43.618;1.474;2023-01-29T15:33:29;5.50;1.00
31975;DHT22;18500;43.618;1.474;2023-01-29T15:36:03;5.60;1.00
31975;DHT22;18500;43.618;1.474;2023-01-29T15:38:29;5.60;1.00
31975;DHT22;18500;43.618;1.474;2023-01-29T15:41:00;5.50;1.00
31975;DHT22;18500;43.618;1.474;2023-01-29T15:43:29;5.40;1.00
31975;DHT22;18500;43.618;1.474;2023-01-29T15:46:09;5.40;1.00
31975;DHT22;18500;43.618;1.474;2023-01-29T15:48:39;5.40;1.00
31975;DHT22;18500;43.618;1.474;2023-01-29T15:51:09;5.50;1.00
31975;DHT22;18500;43.618;1.474;2023-01-29T15:53:49;5.40;1.00
31975;DHT22;18500;43.618;1.474;2023-01-29T15:56:28;5.40;1.00
31975;DHT22;18500;43.618;1.474;2023-01-29T15:58:58;5.40;1.00
31975;DHT22;18500;43.618;1.474;2023-01-29T16:01:26;5.40;1.00
31975;DHT22;18500;43.618;1.474;2023-01-29T16:03:52;5.20;1.00
31975;DHT22;18500;43.618;1.474;2023-01-29T16:06:19;5.10;1.00
31975;DHT22;18500;43.618;1.474;2023-01-29T16:08:50;5.00;1.00
31975;DHT22;18500;43.618;1.474;2023-01-29T16:11:18;4.80;1.00
31975;DHT22;18500;43.618;1.474;2023-01-29T16:13:47;4.80;1.00
31975;DHT22;18500;43.618;1.474;2023-01-29T16:16:26;4.80;1.00
31975;DHT22;18500;43.618;1.474;2023-01-29T16:18:52;4.70;1.00
31975;DHT22;18500;43.618;1.474;2023-01-29T16:23:52;4.60;1.00
31975;DHT22;18500;43.618;1.474;2023-01-29T16:26:25;4.60;1.00
31975;DHT22;18500;43.618;1.474;2023-01-29T16:28:52;4.80;1.00
31975;DHT22;18500;43.618;1.474;2023-01-29T16:31:26;4.60;1.00
31975;DHT22;18500;43.618;1.474;2023-01-29T16:33:52;4.50;1.00
31975;DHT22;18500;43.618;1.474;2023-01-29T16:36:24;4.50;1.00
31975;DHT22;18500;43.618;1.474;2023-01-29T16:39:03;4.40;1.00
31975;DHT22;18500;43.618;1.474;2023-01-29T16:41:32;4.40;1.00
31975;DHT22;18500;43.618;1.474;2023-01-29T16:46:45;4.60;1.00
31975;DHT22;18500;43.618;1.474;2023-01-29T16:51:52;4.50;1.00
31975;DHT22;18500;43.618;1.474;2023-01-29T16:54:20;4.50;1.00
31975;DHT22;18500;43.618;1.474;2023-01-29T16:56:54;4.60;1.00
31975;DHT22;18500;43.618;1.474;2023-01-29T16:59:25;4.50;1.00
31975;DHT22;18500;43.618;1.474;2023-01-29T17:01:53;4.30;1.00
31975;DHT22;18500;43.618;1.474;2023-01-29T17:04:19;4.40;1.00
31975;DHT22;18500;43.618;1.474;2023-01-29T17:06:48;4.50;1.00
31975;DHT22;18500;43.618;1.474;2023-01-29T17:09:23;4.40;1.00
31975;DHT22;18500;43.618;1.474;2023-01-29T17:11:57;4.20;1.00
31975;DHT22;18500;43.618;1.474;2023-01-29T17:14:25;4.10;1.00
31975;DHT22;18500;43.618;1.474;2023-01-29T17:19:19;4.10;1.00
31975;DHT22;18500;43.618;1.474;2023-01-29T17:21:46;4.10;1.00
31975;DHT22;18500;43.618;1.474;2023-01-29T17:24:12;4.20;1.00
31975;DHT22;18500;43.618;1.474;2023-01-29T17:26:38;4.40;1.00
31975;DHT22;18500;43.618;1.474;2023-01-29T17:29:04;4.50;1.00
31975;DHT22;18500;43.618;1.474;2023-01-29T17:31:29;4.50;1.00
31975;DHT22;18500;43.618;1.474;2023-01-29T17:33:55;4.50;1.00
31975;DHT22;18500;43.618;1.474;2023-01-29T17:36:21;4.30;1.00
31975;DHT22;18500;43.618;1.474;2023-01-29T17:38:47;4.20;1.00
31975;DHT22;18500;43.618;1.474;2023-01-29T17:41:23;4.20;1.00
31975;DHT22;18500;43.618;1.474;2023-01-29T17:43:50;4.20;1.00
31975;DHT22;18500;43.618;1.474;2023-01-29T17:46:17;4.40;1.00
31975;DHT22;18500;43.618;1.474;2023-01-29T17:48:43;4.40;1.00
31975;DHT22;18500;43.618;1.474;2023-01-29T17:51:14;4.50;1.00
31975;DHT22;18500;43.618;1.474;2023-01-29T17:53:41;4.40;1.00
31975;DHT22;18500;43.618;1.474;2023-01-29T17:56:16;4.20;1.00
31975;DHT22;18500;43.618;1.474;2023-01-29T17:58:42;4.10;1.00
31975;DHT22;18500;43.618;1.474;2023-01-29T18:01:08;4.10;1.00
31975;DHT22;18500;43.618;1.474;2023-01-29T18:03:34;4.20;1.00
31975;DHT22;18500;43.618;1.474;2023-01-29T18:05:59;4.30;1.00
31975;DHT22;18500;43.618;1.474;2023-01-29T18:08:33;4.30;1.00
31975;DHT22;18500;43.618;1.474;2023-01-29T18:11:00;4.40;1.00
31975;DHT22;18500;43.618;1.474;2023-01-29T18:13:26;4.40;1.00
31975;DHT22;18500;43.618;1.474;2023-01-29T18:15:51;4.40;1.00
31975;DHT22;18500;43.618;1.474;2023-01-29T18:18:19;4.40;1.00
31975;DHT22;18500;43.618;1.474;2023-01-29T18:20:44;4.40;1.00
31975;DHT22;18500;43.618;1.474;2023-01-29T18:23:11;4.40;1.00
31975;DHT22;18500;43.618;1.474;2023-01-29T18:25:37;4.40;1.00
31975;DHT22;18500;43.618;1.474;2023-01-29T18:28:03;4.40;1.00
31975;DHT22;18500;43.618;1.474;2023-01-29T18:30:29;4.40;1.00
31975;DHT22;18500;43.618;1.474;2023-01-29T18:32:55;4.40;1.00
31975;DHT22;18500;43.618;1.474;2023-01-29T18:35:22;4.50;1.00
31975;DHT22;18500;43.618;1.474;2023-01-29T18:37:48;4.40;1.00
31975;DHT22;18500;43.618;1.474;2023-01-29T18:40:15;4.40;1.00
31975;DHT22;18500;43.618;1.474;2023-01-29T18:42:45;4.40;1.00
31975;DHT22;18500;43.618;1.474;2023-01-29T18:45:12;4.40;1.00
31975;DHT22;18500;43.618;1.474;2023-01-29T18:47:38;4.40;1.00
31975;DHT22;18500;43.618;1.474;2023-01-29T18:50:05;4.40;1.00
31975;DHT22;18500;43.618;1.474;2023-01-29T18:52:31;4.40;1.00
31975;DHT22;18500;43.618;1.474;2023-01-29T18:54:57;4.40;1.00
31975;DHT22;18500;43.618;1.474;2023-01-29T18:57:23;4.40;1.00
31975;DHT22;18500;43.618;1.474;2023-01-29T18:59:49;4.40;1.00
31975;DHT22;18500;43.618;1.474;2023-01-29T19:02:16;4.40;1.00
31975;DHT22;18500;43.618;1.474;2023-01-29T19:04:42;4.40;1.00
31975;DHT22;18500;43.618;1.474;2023-01-29T19:07:09;4.30;1.00
31975;DHT22;18500;43.618;1.474;2023-01-29T19:09:35;4.30;1.00
31975;DHT22;18500;43.618;1.474;2023-01-29T19:12:01;4.30;1.00
31975;DHT22;18500;43.618;1.474;2023-01-29T19:14:27;4.30;1.00
31975;DHT22;18500;43.618;1.474;2023-01-29T19:16:52;4.30;1.00
31975;DHT22;18500;43.618;1.474;2023-01-29T19:19:18;4.20;1.00
31975;DHT22;18500;43.618;1.474;2023-01-29T19:21:43;4.30;1.00
31975;DHT22;18500;43.618;1.474;2023-01-29T19:24:09;4.20;1.00
31975;DHT22;18500;43.618;1.474;2023-01-29T19:26:36;4.10;1.00
31975;DHT22;18500;43.618;1.474;2023-01-29T19:29:02;4.00;1.00
31975;DHT22;18500;43.618;1.474;2023-01-29T19:31:28;3.90;1.00
31975;DHT22;18500;43.618;1.474;2023-01-29T19:33:56;3.80;1.00
31975;DHT22;18500;43.618;1.474;2023-01-29T19:36:22;3.70;1.00
31975;DHT22;18500;43.618;1.474;2023-01-29T19:38:48;3.60;1.00
31975;DHT22;18500;43.618;1.474;2023-01-29T19:41:14;3.60;1.00
31975;DHT22;18500;43.618;1.474;2023-01-29T19:43:39;3.70;1.00
31975;DHT22;18500;43.618;1.474;2023-01-29T19:46:06;3.60;1.00
31975;DHT22;18500;43.618;1.474;2023-01-29T19:48:32;3.70;1.00
31975;DHT22;18500;43.618;1.474;2023-01-29T19:51:00;3.70;1.00
31975;DHT22;18500;43.618;1.474;2023-01-29T19:53:27;3.70;1.00
31975;DHT22;18500;43.618;1.474;2023-01-29T19:56:00;3.60;1.00
31975;DHT22;18500;43.618;1.474;2023-01-29T19:58:26;3.70;1.00
31975;DHT22;18500;43.618;1.474;2023-01-29T20:00:56;3.60;1.00
31975;DHT22;18500;43.618;1.474;2023-01-29T20:03:22;3.70;1.00
31975;DHT22;18500;43.618;1.474;2023-01-29T20:05:49;3.80;1.00
31975;DHT22;18500;43.618;1.474;2023-01-29T20:08:15;3.80;1.00
31975;DHT22;18500;43.618;1.474;2023-01-29T20:10:45;3.90;1.00
31975;DHT22;18500;43.618;1.474;2023-01-29T20:13:12;3.80;1.00
31975;DHT22;18500;43.618;1.474;2023-01-29T20:15:42;3.90;1.00
31975;DHT22;18500;43.618;1.474;2023-01-29T20:18:08;3.90;1.00
31975;DHT22;18500;43.618;1.474;2023-01-29T20:20:42;3.90;1.00
31975;DHT22;18500;43.618;1.474;2023-01-29T20:23:09;3.80;1.00
31975;DHT22;18500;43.618;1.474;2023-01-29T20:25:35;3.90;1.00
31975;DHT22;18500;43.618;1.474;2023-01-29T20:28:03;3.90;1.00
31975;DHT22;18500;43.618;1.474;2023-01-29T20:30:31;4.00;1.00
31975;DHT22;18500;43.618;1.474;2023-01-29T20:32:57;3.80;1.00
31975;DHT22;18500;43.618;1.474;2023-01-29T20:35:23;3.70;1.00
31975;DHT22;18500;43.618;1.474;2023-01-29T20:37:49;3.70;1.00
31975;DHT22;18500;43.618;1.474;2023-01-29T20:40:14;3.80;1.00
31975;DHT22;18500;43.618;1.474;2023-01-29T20:42:40;3.80;1.00
31975;DHT22;18500;43.618;1.474;2023-01-29T20:45:06;3.90;1.00
31975;DHT22;18500;43.618;1.474;2023-01-29T20:47:32;4.00;1.00
31975;DHT22;18500;43.618;1.474;2023-01-29T20:49:57;4.10;1.00
31975;DHT22;18500;43.618;1.474;2023-01-29T20:52:24;4.00;1.00
31975;DHT22;18500;43.618;1.474;2023-01-29T20:54:49;4.00;1.00
31975;DHT22;18500;43.618;1.474;2023-01-29T20:57:15;4.00;1.00
31975;DHT22;18500;43.618;1.474;2023-01-29T20:59:41;4.00;1.00
31975;DHT22;18500;43.618;1.474;2023-01-29T21:02:09;4.00;1.00
31975;DHT22;18500;43.618;1.474;2023-01-29T21:04:35;4.10;1.00
31975;DHT22;18500;43.618;1.474;2023-01-29T21:07:00;4.10;1.00
31975;DHT22;18500;43.618;1.474;2023-01-29T21:09:26;4.10;1.00
31975;DHT22;18500;43.618;1.474;2023-01-29T21:11:52;4.10;1.00
31975;DHT22;18500;43.618;1.474;2023-01-29T21:14:17;4.10;1.00
31975;DHT22;18500;43.618;1.474;2023-01-29T21:16:43;4.00;1.00
31975;DHT22;18500;43.618;1.474;2023-01-29T21:19:11;4.00;1.00
31975;DHT22;18500;43.618;1.474;2023-01-29T21:21:37;4.00;1.00
31975;DHT22;18500;43.618;1.474;2023-01-29T21:24:03;4.00;1.00
31975;DHT22;18500;43.618;1.474;2023-01-29T21:26:28;4.00;1.00
31975;DHT22;18500;43.618;1.474;2023-01-29T21:28:54;4.00;1.00
31975;DHT22;18500;43.618;1.474;2023-01-29T21:31:20;4.00;1.00
31975;DHT22;18500;43.618;1.474;2023-01-29T21:33:46;4.00;1.00
31975;DHT22;18500;43.618;1.474;2023-01-29T21:36:11;4.00;1.00
31975;DHT22;18500;43.618;1.474;2023-01-29T21:38:38;3.90;1.00
31975;DHT22;18500;43.618;1.474;2023-01-29T21:41:06;3.80;1.00
31975;DHT22;18500;43.618;1.474;2023-01-29T21:43:33;3.70;1.00
31975;DHT22;18500;43.618;1.474;2023-01-29T21:46:01;3.70;1.00
31975;DHT22;18500;43.618;1.474;2023-01-29T21:48:29;3.50;1.00
31975;DHT22;18500;43.618;1.474;2023-01-29T21:50:55;3.50;1.00
31975;DHT22;18500;43.618;1.474;2023-01-29T21:53:21;3.70;1.00
31975;DHT22;18500;43.618;1.474;2023-01-29T21:55:47;3.80;1.00
31975;DHT22;18500;43.618;1.474;2023-01-29T21:58:13;3.80;1.00
31975;DHT22;18500;43.618;1.474;2023-01-29T22:00:38;3.80;1.00
31975;DHT22;18500;43.618;1.474;2023-01-29T22:03:04;3.80;1.00
31975;DHT22;18500;43.618;1.474;2023-01-29T22:05:31;3.90;1.00
31975;DHT22;18500;43.618;1.474;2023-01-29T22:07:57;3.90;1.00
31975;DHT22;18500;43.618;1.474;2023-01-29T22:10:23;3.90;1.00
31975;DHT22;18500;43.618;1.474;2023-01-29T22:12:48;3.90;1.00
31975;DHT22;18500;43.618;1.474;2023-01-29T22:15:14;3.90;1.00
31975;DHT22;18500;43.618;1.474;2023-01-29T22:17:40;3.90;1.00
31975;DHT22;18500;43.618;1.474;2023-01-29T22:20:08;3.90;1.00
31975;DHT22;18500;43.618;1.474;2023-01-29T22:22:34;3.80;1.00
31975;DHT22;18500;43.618;1.474;2023-01-29T22:24:59;3.70;1.00
31975;DHT22;18500;43.618;1.474;2023-01-29T22:27:25;3.70;1.00
31975;DHT22;18500;43.618;1.474;2023-01-29T22:29:51;3.70;1.00
31975;DHT22;18500;43.618;1.474;2023-01-29T22:32:16;3.80;1.00
31975;DHT22;18500;43.618;1.474;2023-01-29T22:34:42;3.70;1.00
31975;DHT22;18500;43.618;1.474;2023-01-29T22:37:08;3.70;1.00
31975;DHT22;18500;43.618;1.474;2023-01-29T22:39:33;3.60;1.00
31975;DHT22;18500;43.618;1.474;2023-01-29T22:41:59;3.60;1.00
31975;DHT22;18500;43.618;1.474;2023-01-29T22:44:25;3.60;1.00
31975;DHT22;18500;43.618;1.474;2023-01-29T22:46:50;3.60;1.00
31975;DHT22;18500;43.618;1.474;2023-01-29T22:49:17;3.60;1.00
31975;DHT22;18500;43.618;1.474;2023-01-29T22:51:43;3.60;1.00
31975;DHT22;18500;43.618;1.474;2023-01-29T22:54:10;3.70;1.00
31975;DHT22;18500;43.618;1.474;2023-01-29T22:56:35;3.60;1.00
31975;DHT22;18500;43.618;1.474;2023-01-29T22:59:01;3.60;1.00
31975;DHT22;18500;43.618;1.474;2023-01-29T23:01:29;3.70;1.00
31975;DHT22;18500;43.618;1.474;2023-01-29T23:03:55;3.70;1.00
31975;DHT22;18500;43.618;1.474;2023-01-29T23:06:22;3.70;1.00
31975;DHT22;18500;43.618;1.474;2023-01-29T23:08:48;3.70;1.00
